sensor_id;sensor_type;location;lat;lon;timestamp;temperature;humidity
6054;DHT22;3055;50.886;14.814;2023-11-19T00:01:02;4.40;99.90
6054;DHT22;3055;50.886;14.814;2023-11-19T00:03:31;4.30;99.90
6054;DHT22;3055;50.886;14.814;2023-11-19T00:06:00;4.30;99.90
6054;DHT22;3055;50.886;14.814;2023-11-19T00:08:28;4.30;99.90
6054;DHT22;3055;50.886;14.814;2023-11-19T00:10:55;4.30;99.90
6054;DHT22;3055;50.886;14.814;2023-11-19T00:13:22;4.20;99.90
6054;DHT22;3055;50.886;14.814;2023-11-19T00:15:51;4.20;99.90
6054;DHT22;3055;50.886;14.814;2023-11-19T00:18:18;4.30;99.90
6054;DHT22;3055;50.886;14.814;2023-11-19T00:20:46;4.30;99.90
6054;DHT22;3055;50.886;14.814;2023-11-19T00:23:14;4.30;99.90
6054;DHT22;3055;50.886;14.814;2023-11-19T00:25:41;4.30;99.90
6054;DHT22;3055;50.886;14.814;2023-11-19T00:28:08;4.30;99.90
6054;DHT22;3055;50.886;14.814;2023-11-19T00:30:35;4.30;99.90
6054;DHT22;3055;50.886;14.814;2023-11-19T00:33:02;4.20;99.90
6054;DHT22;3055;50.886;14.814;2023-11-19T00:35:29;4.30;99.90
6054;DHT22;3055;50.886;14.814;2023-11-19T00:37:57;4.30;99.90
6054;DHT22;3055;50.886;14.814;2023-11-19T00:40:26;4.20;99.90
6054;DHT22;3055;50.886;14.814;2023-11-19T00:42:53;4.30;99.90
6054;DHT22;3055;50.886;14.814;2023-11-19T00:45:20;4.30;99.90
6054;DHT22;3055;50.886;14.814;2023-11-19T00:47:46;4.30;99.90
6054;DHT22;3055;50.886;14.814;2023-11-19T00:50:13;4.30;99.90
6054;DHT22;3055;50.886;14.814;2023-11-19T00:52:41;4.30;99.90
6054;DHT22;3055;50.886;14.814;2023-11-19T00:55:09;4.20;99.90
6054;DHT22;3055;50.886;14.814;2023-11-19T00:57:38;4.20;99.90
6054;DHT22;3055;50.886;14.814;2023-11-19T01:00:08;4.10;99.90
6054;DHT22;3055;50.886;14.814;2023-11-19T01:02:44;4.00;99.90
6054;DHT22;3055;50.886;14.814;2023-11-19T01:05:11;4.00;99.90
6054;DHT22;3055;50.886;14.814;2023-11-19T01:07:39;4.00;99.90
6054;DHT22;3055;50.886;14.814;2023-11-19T01:10:07;3.90;99.90
6054;DHT22;3055;50.886;14.814;2023-11-19T01:12:35;3.80;99.90
6054;DHT22;3055;50.886;14.814;2023-11-19T01:15:05;3.80;99.90
6054;DHT22;3055;50.886;14.814;2023-11-19T01:17:32;3.80;99.90
6054;DHT22;3055;50.886;14.814;2023-11-19T01:20:00;3.80;99.90
6054;DHT22;3055;50.886;14.814;2023-11-19T01:22:27;3.70;99.90
6054;DHT22;3055;50.886;14.814;2023-11-19T01:24:54;3.70;99.90
6054;DHT22;3055;50.886;14.814;2023-11-19T01:27:21;3.70;99.90
6054;DHT22;3055;50.886;14.814;2023-11-19T01:29:48;3.80;99.90
6054;DHT22;3055;50.886;14.814;2023-11-19T01:32:16;3.70;99.90
6054;DHT22;3055;50.886;14.814;2023-11-19T01:34:43;3.70;99.90
6054;DHT22;3055;50.886;14.814;2023-11-19T01:37:10;3.60;99.90
6054;DHT22;3055;50.886;14.814;2023-11-19T01:39:39;3.60;99.90
6054;DHT22;3055;50.886;14.814;2023-11-19T01:42:06;3.60;99.90
6054;DHT22;3055;50.886;14.814;2023-11-19T01:44:33;3.60;99.90
6054;DHT22;3055;50.886;14.814;2023-11-19T01:47:01;3.40;99.90
6054;DHT22;3055;50.886;14.814;2023-11-19T01:49:31;3.40;99.90
6054;DHT22;3055;50.886;14.814;2023-11-19T01:51:58;3.40;99.90
6054;DHT22;3055;50.886;14.814;2023-11-19T01:54:26;3.40;99.90
6054;DHT22;3055;50.886;14.814;2023-11-19T01:56:56;3.30;99.90
6054;DHT22;3055;50.886;14.814;2023-11-19T01:59:24;3.30;99.90
6054;DHT22;3055;50.886;14.814;2023-11-19T02:01:53;3.40;99.90
6054;DHT22;3055;50.886;14.814;2023-11-19T02:04:21;3.30;99.90
6054;DHT22;3055;50.886;14.814;2023-11-19T02:06:51;3.30;99.90
6054;DHT22;3055;50.886;14.814;2023-11-19T02:09:21;3.30;99.90
6054;DHT22;3055;50.886;14.814;2023-11-19T02:11:48;3.30;99.90
6054;DHT22;3055;50.886;14.814;2023-11-19T02:14:17;3.30;99.90
6054;DHT22;3055;50.886;14.814;2023-11-19T02:16:45;3.30;99.90
6054;DHT22;3055;50.886;14.814;2023-11-19T02:19:12;3.30;99.90
6054;DHT22;3055;50.886;14.814;2023-11-19T02:21:39;3.30;99.90
6054;DHT22;3055;50.886;14.814;2023-11-19T02:24:10;3.30;99.90
6054;DHT22;3055;50.886;14.814;2023-11-19T02:26:44;3.20;99.90
6054;DHT22;3055;50.886;14.814;2023-11-19T02:29:13;3.30;99.90
6054;DHT22;3055;50.886;14.814;2023-11-19T02:31:40;3.30;99.90
6054;DHT22;3055;50.886;14.814;2023-11-19T02:34:07;3.30;99.90
6054;DHT22;3055;50.886;14.814;2023-11-19T02:36:38;3.30;99.90
6054;DHT22;3055;50.886;14.814;2023-11-19T02:39:07;3.30;99.90
6054;DHT22;3055;50.886;14.814;2023-11-19T02:41:37;3.30;99.90
6054;DHT22;3055;50.886;14.814;2023-11-19T02:44:05;3.30;99.90
6054;DHT22;3055;50.886;14.814;2023-11-19T02:46:34;3.40;99.90
6054;DHT22;3055;50.886;14.814;2023-11-19T02:49:01;3.40;99.90
6054;DHT22;3055;50.886;14.814;2023-11-19T02:51:28;3.40;99.90
6054;DHT22;3055;50.886;14.814;2023-11-19T02:53:56;3.30;99.90
6054;DHT22;3055;50.886;14.814;2023-11-19T02:56:23;3.30;99.90
6054;DHT22;3055;50.886;14.814;2023-11-19T02:58:52;3.30;99.90
6054;DHT22;3055;50.886;14.814;2023-11-19T03:01:23;3.30;99.90
6054;DHT22;3055;50.886;14.814;2023-11-19T03:03:57;3.30;99.90
6054;DHT22;3055;50.886;14.814;2023-11-19T03:06:24;3.30;99.90
6054;DHT22;3055;50.886;14.814;2023-11-19T03:08:51;3.30;99.90
6054;DHT22;3055;50.886;14.814;2023-11-19T03:11:18;3.30;99.90
6054;DHT22;3055;50.886;14.814;2023-11-19T03:13:45;3.30;99.90
6054;DHT22;3055;50.886;14.814;2023-11-19T03:16:13;3.30;99.90
6054;DHT22;3055;50.886;14.814;2023-11-19T03:18:40;3.40;99.90
6054;DHT22;3055;50.886;14.814;2023-11-19T03:21:09;3.30;99.90
6054;DHT22;3055;50.886;14.814;2023-11-19T03:23:36;3.40;99.90
6054;DHT22;3055;50.886;14.814;2023-11-19T03:26:05;3.40;99.90
6054;DHT22;3055;50.886;14.814;2023-11-19T03:28:33;3.30;99.90
6054;DHT22;3055;50.886;14.814;2023-11-19T03:31:00;3.30;99.90
6054;DHT22;3055;50.886;14.814;2023-11-19T03:33:27;3.30;99.90
6054;DHT22;3055;50.886;14.814;2023-11-19T03:35:54;3.40;99.90
6054;DHT22;3055;50.886;14.814;2023-11-19T03:38:23;3.40;99.90
6054;DHT22;3055;50.886;14.814;2023-11-19T03:40:51;3.40;99.90
6054;DHT22;3055;50.886;14.814;2023-11-19T03:43:18;3.40;99.90
6054;DHT22;3055;50.886;14.814;2023-11-19T03:45:45;3.30;99.90
6054;DHT22;3055;50.886;14.814;2023-11-19T03:48:13;3.30;99.90
6054;DHT22;3055;50.886;14.814;2023-11-19T03:50:41;3.30;99.90
6054;DHT22;3055;50.886;14.814;2023-11-19T03:53:08;3.30;99.90
6054;DHT22;3055;50.886;14.814;2023-11-19T03:55:37;3.30;99.90
6054;DHT22;3055;50.886;14.814;2023-11-19T03:58:04;3.30;99.90
6054;DHT22;3055;50.886;14.814;2023-11-19T04:00:31;3.30;99.90
6054;DHT22;3055;50.886;14.814;2023-11-19T04:02:58;3.30;99.90
6054;DHT22;3055;50.886;14.814;2023-11-19T04:05:26;3.30;99.90
6054;DHT22;3055;50.886;14.814;2023-11-19T04:07:53;3.40;99.90
6054;DHT22;3055;50.886;14.814;2023-11-19T04:10:20;3.40;99.90
6054;DHT22;3055;50.886;14.814;2023-11-19T04:12:49;3.40;99.90
6054;DHT22;3055;50.886;14.814;2023-11-19T04:15:16;3.40;99.90
6054;DHT22;3055;50.886;14.814;2023-11-19T04:17:43;3.40;99.90
6054;DHT22;3055;50.886;14.814;2023-11-19T04:20:11;3.40;99.90
6054;DHT22;3055;50.886;14.814;2023-11-19T04:22:39;3.40;99.90
6054;DHT22;3055;50.886;14.814;2023-11-19T04:25:07;3.40;99.90
6054;DHT22;3055;50.886;14.814;2023-11-19T04:27:34;3.40;99.90
6054;DHT22;3055;50.886;14.814;2023-11-19T04:30:03;3.40;99.90
6054;DHT22;3055;50.886;14.814;2023-11-19T04:32:31;3.40;99.90
6054;DHT22;3055;50.886;14.814;2023-11-19T04:34:58;3.40;99.90
6054;DHT22;3055;50.886;14.814;2023-11-19T04:37:25;3.40;99.90
6054;DHT22;3055;50.886;14.814;2023-11-19T04:39:52;3.30;99.90
6054;DHT22;3055;50.886;14.814;2023-11-19T04:42:19;3.40;99.90
6054;DHT22;3055;50.886;14.814;2023-11-19T04:44:46;3.40;99.90
6054;DHT22;3055;50.886;14.814;2023-11-19T04:47:14;3.40;99.90
6054;DHT22;3055;50.886;14.814;2023-11-19T04:49:41;3.40;99.90
6054;DHT22;3055;50.886;14.814;2023-11-19T04:52:09;3.40;99.90
6054;DHT22;3055;50.886;14.814;2023-11-19T04:54:41;3.40;99.90
6054;DHT22;3055;50.886;14.814;2023-11-19T04:57:08;3.40;99.90
6054;DHT22;3055;50.886;14.814;2023-11-19T04:59:36;3.40;99.90
6054;DHT22;3055;50.886;14.814;2023-11-19T05:02:04;3.40;99.90
6054;DHT22;3055;50.886;14.814;2023-11-19T05:04:32;3.40;99.90
6054;DHT22;3055;50.886;14.814;2023-11-19T05:06:59;3.50;99.90
6054;DHT22;3055;50.886;14.814;2023-11-19T05:09:26;3.50;99.90
6054;DHT22;3055;50.886;14.814;2023-11-19T05:11:53;3.50;99.90
6054;DHT22;3055;50.886;14.814;2023-11-19T05:14:20;3.50;99.90
6054;DHT22;3055;50.886;14.814;2023-11-19T05:16:50;3.60;99.90
6054;DHT22;3055;50.886;14.814;2023-11-19T05:19:16;3.50;99.90
6054;DHT22;3055;50.886;14.814;2023-11-19T05:21:45;3.60;99.90
6054;DHT22;3055;50.886;14.814;2023-11-19T05:24:12;3.60;99.90
6054;DHT22;3055;50.886;14.814;2023-11-19T05:26:39;3.50;99.90
6054;DHT22;3055;50.886;14.814;2023-11-19T05:29:07;3.60;99.90
6054;DHT22;3055;50.886;14.814;2023-11-19T05:31:34;3.60;99.90
6054;DHT22;3055;50.886;14.814;2023-11-19T05:34:01;3.60;99.90
6054;DHT22;3055;50.886;14.814;2023-11-19T05:36:28;3.60;99.90
6054;DHT22;3055;50.886;14.814;2023-11-19T05:38:56;3.60;99.90
6054;DHT22;3055;50.886;14.814;2023-11-19T05:41:23;3.60;99.90
6054;DHT22;3055;50.886;14.814;2023-11-19T05:43:50;3.60;99.90
6054;DHT22;3055;50.886;14.814;2023-11-19T05:46:17;3.60;99.90
6054;DHT22;3055;50.886;14.814;2023-11-19T05:48:44;3.60;99.90
6054;DHT22;3055;50.886;14.814;2023-11-19T05:51:13;3.70;99.90
6054;DHT22;3055;50.886;14.814;2023-11-19T05:53:40;3.70;99.90
6054;DHT22;3055;50.886;14.814;2023-11-19T05:56:09;3.70;99.90
6054;DHT22;3055;50.886;14.814;2023-11-19T05:58:36;3.70;99.90
6054;DHT22;3055;50.886;14.814;2023-11-19T06:01:05;3.70;99.90
6054;DHT22;3055;50.886;14.814;2023-11-19T06:03:33;3.70;99.90
6054;DHT22;3055;50.886;14.814;2023-11-19T06:06:00;3.70;99.90
6054;DHT22;3055;50.886;14.814;2023-11-19T06:08:27;3.70;99.90
6054;DHT22;3055;50.886;14.814;2023-11-19T06:10:55;3.70;99.90
6054;DHT22;3055;50.886;14.814;2023-11-19T06:13:23;3.70;99.90
6054;DHT22;3055;50.886;14.814;2023-11-19T06:15:51;3.70;99.90
6054;DHT22;3055;50.886;14.814;2023-11-19T06:18:18;3.60;99.90
6054;DHT22;3055;50.886;14.814;2023-11-19T06:20:46;3.70;99.90
6054;DHT22;3055;50.886;14.814;2023-11-19T06:23:13;3.70;99.90
6054;DHT22;3055;50.886;14.814;2023-11-19T06:25:40;3.60;99.90
6054;DHT22;3055;50.886;14.814;2023-11-19T06:28:07;3.60;99.90
6054;DHT22;3055;50.886;14.814;2023-11-19T06:30:35;3.70;99.90
6054;DHT22;3055;50.886;14.814;2023-11-19T06:33:02;3.60;99.90
6054;DHT22;3055;50.886;14.814;2023-11-19T06:35:30;3.70;99.90
6054;DHT22;3055;50.886;14.814;2023-11-19T06:38:02;3.70;99.90
6054;DHT22;3055;50.886;14.814;2023-11-19T06:40:30;3.70;99.90
6054;DHT22;3055;50.886;14.814;2023-11-19T06:42:57;3.60;99.90
6054;DHT22;3055;50.886;14.814;2023-11-19T06:45:24;3.60;99.90
6054;DHT22;3055;50.886;14.814;2023-11-19T06:47:52;3.70;99.90
6054;DHT22;3055;50.886;14.814;2023-11-19T06:50:19;3.70;99.90
6054;DHT22;3055;50.886;14.814;2023-11-19T06:52:46;3.70;99.90
6054;DHT22;3055;50.886;14.814;2023-11-19T06:55:14;3.70;99.90
6054;DHT22;3055;50.886;14.814;2023-11-19T06:57:41;3.70;99.90
6054;DHT22;3055;50.886;14.814;2023-11-19T07:00:10;3.80;99.90
6054;DHT22;3055;50.886;14.814;2023-11-19T07:02:37;3.70;99.90
6054;DHT22;3055;50.886;14.814;2023-11-19T07:05:07;3.70;99.90
6054;DHT22;3055;50.886;14.814;2023-11-19T07:07:34;3.70;99.90
6054;DHT22;3055;50.886;14.814;2023-11-19T07:10:01;3.70;99.90
6054;DHT22;3055;50.886;14.814;2023-11-19T07:12:30;3.70;99.90
6054;DHT22;3055;50.886;14.814;2023-11-19T07:14:57;3.70;99.90
6054;DHT22;3055;50.886;14.814;2023-11-19T07:17:24;3.70;99.90
6054;DHT22;3055;50.886;14.814;2023-11-19T07:19:51;3.70;99.90
6054;DHT22;3055;50.886;14.814;2023-11-19T07:22:19;3.70;99.90
6054;DHT22;3055;50.886;14.814;2023-11-19T07:24:46;3.80;99.90
6054;DHT22;3055;50.886;14.814;2023-11-19T07:27:13;3.70;99.90
6054;DHT22;3055;50.886;14.814;2023-11-19T07:29:43;3.70;99.90
6054;DHT22;3055;50.886;14.814;2023-11-19T07:32:10;3.70;99.90
6054;DHT22;3055;50.886;14.814;2023-11-19T07:34:39;3.80;99.90
6054;DHT22;3055;50.886;14.814;2023-11-19T07:37:06;3.80;99.90
6054;DHT22;3055;50.886;14.814;2023-11-19T07:39:35;3.90;99.90
6054;DHT22;3055;50.886;14.814;2023-11-19T07:42:03;3.90;99.90
6054;DHT22;3055;50.886;14.814;2023-11-19T07:44:30;3.90;99.90
6054;DHT22;3055;50.886;14.814;2023-11-19T07:46:57;3.90;99.90
6054;DHT22;3055;50.886;14.814;2023-11-19T07:49:25;3.90;99.90
6054;DHT22;3055;50.886;14.814;2023-11-19T07:51:52;3.90;99.90
6054;DHT22;3055;50.886;14.814;2023-11-19T07:54:19;4.00;99.90
6054;DHT22;3055;50.886;14.814;2023-11-19T07:56:48;3.90;99.90
6054;DHT22;3055;50.886;14.814;2023-11-19T07:59:16;4.00;99.90
6054;DHT22;3055;50.886;14.814;2023-11-19T08:01:43;4.00;99.90
6054;DHT22;3055;50.886;14.814;2023-11-19T08:04:10;4.00;99.90
6054;DHT22;3055;50.886;14.814;2023-11-19T08:06:37;4.00;99.90
6054;DHT22;3055;50.886;14.814;2023-11-19T08:09:04;3.90;99.90
6054;DHT22;3055;50.886;14.814;2023-11-19T08:11:32;3.90;99.90
6054;DHT22;3055;50.886;14.814;2023-11-19T08:14:00;3.90;99.90
6054;DHT22;3055;50.886;14.814;2023-11-19T08:16:27;3.90;99.90
6054;DHT22;3055;50.886;14.814;2023-11-19T08:18:54;3.90;99.90
6054;DHT22;3055;50.886;14.814;2023-11-19T08:21:24;3.90;99.90
6054;DHT22;3055;50.886;14.814;2023-11-19T08:23:52;3.90;99.90
6054;DHT22;3055;50.886;14.814;2023-11-19T08:26:19;3.90;99.90
6054;DHT22;3055;50.886;14.814;2023-11-19T08:28:46;3.90;99.90
6054;DHT22;3055;50.886;14.814;2023-11-19T08:31:15;4.00;99.90
6054;DHT22;3055;50.886;14.814;2023-11-19T08:33:42;4.00;99.90
6054;DHT22;3055;50.886;14.814;2023-11-19T08:36:14;4.00;99.90
6054;DHT22;3055;50.886;14.814;2023-11-19T08:38:41;4.00;99.90
6054;DHT22;3055;50.886;14.814;2023-11-19T08:41:09;4.10;99.90
6054;DHT22;3055;50.886;14.814;2023-11-19T08:43:36;4.10;99.90
6054;DHT22;3055;50.886;14.814;2023-11-19T08:46:04;4.10;99.90
6054;DHT22;3055;50.886;14.814;2023-11-19T08:48:37;4.10;99.90
6054;DHT22;3055;50.886;14.814;2023-11-19T08:51:05;4.20;99.90
6054;DHT22;3055;50.886;14.814;2023-11-19T08:53:32;4.20;99.90
6054;DHT22;3055;50.886;14.814;2023-11-19T08:55:59;4.20;99.90
6054;DHT22;3055;50.886;14.814;2023-11-19T08:58:26;4.30;99.90
6054;DHT22;3055;50.886;14.814;2023-11-19T09:00:53;4.30;99.90
6054;DHT22;3055;50.886;14.814;2023-11-19T09:03:20;4.30;99.90
6054;DHT22;3055;50.886;14.814;2023-11-19T09:05:48;4.30;99.90
6054;DHT22;3055;50.886;14.814;2023-11-19T09:08:15;4.30;99.90
6054;DHT22;3055;50.886;14.814;2023-11-19T09:10:42;4.40;99.90
6054;DHT22;3055;50.886;14.814;2023-11-19T09:13:09;4.40;99.90
6054;DHT22;3055;50.886;14.814;2023-11-19T09:15:36;4.50;99.90
6054;DHT22;3055;50.886;14.814;2023-11-19T09:18:04;4.50;99.90
6054;DHT22;3055;50.886;14.814;2023-11-19T09:20:31;4.50;99.90
6054;DHT22;3055;50.886;14.814;2023-11-19T09:23:05;4.50;99.90
6054;DHT22;3055;50.886;14.814;2023-11-19T09:25:32;4.50;99.90
6054;DHT22;3055;50.886;14.814;2023-11-19T09:27:59;4.50;99.90
6054;DHT22;3055;50.886;14.814;2023-11-19T09:30:26;4.60;99.90
6054;DHT22;3055;50.886;14.814;2023-11-19T09:32:53;4.70;99.90
6054;DHT22;3055;50.886;14.814;2023-11-19T09:35:20;4.80;99.90
6054;DHT22;3055;50.886;14.814;2023-11-19T09:37:47;4.90;99.90
6054;DHT22;3055;50.886;14.814;2023-11-19T09:40:16;4.90;99.90
6054;DHT22;3055;50.886;14.814;2023-11-19T09:42:44;5.00;99.90
6054;DHT22;3055;50.886;14.814;2023-11-19T09:45:15;5.10;99.90
6054;DHT22;3055;50.886;14.814;2023-11-19T09:47:44;5.10;99.90
6054;DHT22;3055;50.886;14.814;2023-11-19T09:50:15;5.10;99.90
6054;DHT22;3055;50.886;14.814;2023-11-19T09:52:43;5.00;99.90
6054;DHT22;3055;50.886;14.814;2023-11-19T09:55:10;5.00;99.90
6054;DHT22;3055;50.886;14.814;2023-11-19T09:57:40;5.00;99.90
6054;DHT22;3055;50.886;14.814;2023-11-19T10:00:10;5.00;99.90
6054;DHT22;3055;50.886;14.814;2023-11-19T10:02:39;5.00;99.90
6054;DHT22;3055;50.886;14.814;2023-11-19T10:05:07;5.00;99.90
6054;DHT22;3055;50.886;14.814;2023-11-19T10:07:35;5.10;99.90
6054;DHT22;3055;50.886;14.814;2023-11-19T10:10:04;5.10;99.90
6054;DHT22;3055;50.886;14.814;2023-11-19T10:12:31;5.10;99.90
6054;DHT22;3055;50.886;14.814;2023-11-19T10:14:59;5.10;99.90
6054;DHT22;3055;50.886;14.814;2023-11-19T10:17:33;5.10;99.90
6054;DHT22;3055;50.886;14.814;2023-11-19T10:20:00;5.10;99.90
6054;DHT22;3055;50.886;14.814;2023-11-19T10:22:28;5.10;99.90
6054;DHT22;3055;50.886;14.814;2023-11-19T10:24:55;5.10;99.90
6054;DHT22;3055;50.886;14.814;2023-11-19T10:27:24;5.20;99.90
6054;DHT22;3055;50.886;14.814;2023-11-19T10:29:51;5.30;99.90
6054;DHT22;3055;50.886;14.814;2023-11-19T10:32:20;5.20;99.90
6054;DHT22;3055;50.886;14.814;2023-11-19T10:34:47;5.30;99.90
6054;DHT22;3055;50.886;14.814;2023-11-19T10:37:27;5.30;99.90
6054;DHT22;3055;50.886;14.814;2023-11-19T10:39:57;5.30;99.90
6054;DHT22;3055;50.886;14.814;2023-11-19T10:42:24;5.30;99.90
6054;DHT22;3055;50.886;14.814;2023-11-19T10:44:51;5.40;99.90
6054;DHT22;3055;50.886;14.814;2023-11-19T10:47:20;5.50;99.90
6054;DHT22;3055;50.886;14.814;2023-11-19T10:49:49;5.60;99.90
6054;DHT22;3055;50.886;14.814;2023-11-19T10:52:18;5.80;99.90
6054;DHT22;3055;50.886;14.814;2023-11-19T10:54:50;5.90;99.90
6054;DHT22;3055;50.886;14.814;2023-11-19T10:57:20;6.10;99.90
6054;DHT22;3055;50.886;14.814;2023-11-19T10:59:51;6.10;99.90
6054;DHT22;3055;50.886;14.814;2023-11-19T11:02:22;6.10;99.90
6054;DHT22;3055;50.886;14.814;2023-11-19T11:04:51;6.20;99.90
6054;DHT22;3055;50.886;14.814;2023-11-19T11:07:21;6.40;99.90
6054;DHT22;3055;50.886;14.814;2023-11-19T11:09:51;6.50;99.90
6054;DHT22;3055;50.886;14.814;2023-11-19T11:12:22;6.60;99.90
6054;DHT22;3055;50.886;14.814;2023-11-19T11:14:51;6.60;99.90
6054;DHT22;3055;50.886;14.814;2023-11-19T11:17:24;6.60;99.90
6054;DHT22;3055;50.886;14.814;2023-11-19T11:19:52;6.70;99.90
6054;DHT22;3055;50.886;14.814;2023-11-19T11:22:20;6.70;99.90
6054;DHT22;3055;50.886;14.814;2023-11-19T11:25:11;6.60;99.90
6054;DHT22;3055;50.886;14.814;2023-11-19T11:28:03;6.50;99.90
6054;DHT22;3055;50.886;14.814;2023-11-19T11:30:45;6.40;99.90
6054;DHT22;3055;50.886;14.814;2023-11-19T11:33:26;6.50;99.90
6054;DHT22;3055;50.886;14.814;2023-11-19T11:36:08;6.60;99.90
6054;DHT22;3055;50.886;14.814;2023-11-19T11:38:38;6.70;99.90
6054;DHT22;3055;50.886;14.814;2023-11-19T11:41:18;6.70;99.90
6054;DHT22;3055;50.886;14.814;2023-11-19T11:43:47;6.80;99.90
6054;DHT22;3055;50.886;14.814;2023-11-19T11:46:53;6.90;99.90
6054;DHT22;3055;50.886;14.814;2023-11-19T11:49:28;6.90;99.90
6054;DHT22;3055;50.886;14.814;2023-11-19T11:52:03;6.90;99.90
6054;DHT22;3055;50.886;14.814;2023-11-19T11:54:30;7.00;99.90
6054;DHT22;3055;50.886;14.814;2023-11-19T11:57:07;7.00;99.90
6054;DHT22;3055;50.886;14.814;2023-11-19T11:59:48;6.90;99.90
6054;DHT22;3055;50.886;14.814;2023-11-19T12:02:16;6.80;99.90
6054;DHT22;3055;50.886;14.814;2023-11-19T12:04:48;6.70;99.90
6054;DHT22;3055;50.886;14.814;2023-11-19T12:07:17;6.70;99.90
6054;DHT22;3055;50.886;14.814;2023-11-19T12:09:48;6.80;99.90
6054;DHT22;3055;50.886;14.814;2023-11-19T12:12:21;6.70;99.90
6054;DHT22;3055;50.886;14.814;2023-11-19T12:15:06;6.70;99.90
6054;DHT22;3055;50.886;14.814;2023-11-19T12:17:42;6.80;99.90
6054;DHT22;3055;50.886;14.814;2023-11-19T12:20:12;6.90;99.90
6054;DHT22;3055;50.886;14.814;2023-11-19T12:22:40;6.90;99.90
6054;DHT22;3055;50.886;14.814;2023-11-19T12:25:08;7.00;99.90
6054;DHT22;3055;50.886;14.814;2023-11-19T12:27:35;7.10;99.90
6054;DHT22;3055;50.886;14.814;2023-11-19T12:30:03;7.10;99.90
6054;DHT22;3055;50.886;14.814;2023-11-19T12:32:40;7.00;99.90
6054;DHT22;3055;50.886;14.814;2023-11-19T12:35:08;6.80;99.90
6054;DHT22;3055;50.886;14.814;2023-11-19T12:37:45;6.80;99.90
6054;DHT22;3055;50.886;14.814;2023-11-19T12:40:14;6.80;99.90
6054;DHT22;3055;50.886;14.814;2023-11-19T12:42:43;6.80;99.90
6054;DHT22;3055;50.886;14.814;2023-11-19T12:45:10;6.70;99.90
6054;DHT22;3055;50.886;14.814;2023-11-19T12:47:39;6.60;99.90
6054;DHT22;3055;50.886;14.814;2023-11-19T12:50:07;6.70;99.90
6054;DHT22;3055;50.886;14.814;2023-11-19T12:52:35;6.90;99.90
6054;DHT22;3055;50.886;14.814;2023-11-19T12:55:05;7.00;99.90
6054;DHT22;3055;50.886;14.814;2023-11-19T12:57:39;7.20;99.90
6054;DHT22;3055;50.886;14.814;2023-11-19T13:00:17;7.30;99.90
6054;DHT22;3055;50.886;14.814;2023-11-19T13:02:46;7.40;99.90
6054;DHT22;3055;50.886;14.814;2023-11-19T13:05:25;7.40;99.90
6054;DHT22;3055;50.886;14.814;2023-11-19T13:07:58;7.60;99.90
6054;DHT22;3055;50.886;14.814;2023-11-19T13:10:28;7.80;99.90
6054;DHT22;3055;50.886;14.814;2023-11-19T13:13:02;7.80;99.90
6054;DHT22;3055;50.886;14.814;2023-11-19T13:15:29;7.80;99.90
6054;DHT22;3055;50.886;14.814;2023-11-19T13:17:56;7.80;99.90
6054;DHT22;3055;50.886;14.814;2023-11-19T13:20:23;7.90;99.90
6054;DHT22;3055;50.886;14.814;2023-11-19T13:23:02;8.10;99.90
6054;DHT22;3055;50.886;14.814;2023-11-19T13:25:31;8.10;99.90
6054;DHT22;3055;50.886;14.814;2023-11-19T13:27:59;8.20;99.90
6054;DHT22;3055;50.886;14.814;2023-11-19T13:30:26;8.30;99.90
6054;DHT22;3055;50.886;14.814;2023-11-19T13:32:53;8.50;99.90
6054;DHT22;3055;50.886;14.814;2023-11-19T13:35:22;8.50;99.90
6054;DHT22;3055;50.886;14.814;2023-11-19T13:37:49;8.30;99.90
6054;DHT22;3055;50.886;14.814;2023-11-19T13:40:17;8.40;99.90
6054;DHT22;3055;50.886;14.814;2023-11-19T13:42:46;8.30;99.90
6054;DHT22;3055;50.886;14.814;2023-11-19T13:45:14;8.30;99.90
6054;DHT22;3055;50.886;14.814;2023-11-19T13:47:42;8.20;99.90
6054;DHT22;3055;50.886;14.814;2023-11-19T13:50:11;8.10;99.90
6054;DHT22;3055;50.886;14.814;2023-11-19T13:52:38;8.10;99.90
6054;DHT22;3055;50.886;14.814;2023-11-19T13:55:07;8.00;99.90
6054;DHT22;3055;50.886;14.814;2023-11-19T13:57:34;7.90;99.90
6054;DHT22;3055;50.886;14.814;2023-11-19T14:00:03;7.70;99.90
6054;DHT22;3055;50.886;14.814;2023-11-19T14:02:32;7.60;99.90
6054;DHT22;3055;50.886;14.814;2023-11-19T14:04:59;7.50;99.90
6054;DHT22;3055;50.886;14.814;2023-11-19T14:07:26;7.50;99.90
6054;DHT22;3055;50.886;14.814;2023-11-19T14:09:54;7.60;99.90
6054;DHT22;3055;50.886;14.814;2023-11-19T14:12:21;7.60;99.90
6054;DHT22;3055;50.886;14.814;2023-11-19T14:14:48;7.70;99.90
6054;DHT22;3055;50.886;14.814;2023-11-19T14:17:16;7.70;99.90
6054;DHT22;3055;50.886;14.814;2023-11-19T14:19:44;7.60;99.90
6054;DHT22;3055;50.886;14.814;2023-11-19T14:22:11;7.50;99.90
6054;DHT22;3055;50.886;14.814;2023-11-19T14:24:38;7.30;99.90
6054;DHT22;3055;50.886;14.814;2023-11-19T14:27:06;7.20;99.90
6054;DHT22;3055;50.886;14.814;2023-11-19T14:29:33;7.00;99.90
6054;DHT22;3055;50.886;14.814;2023-11-19T14:32:00;7.00;99.90
6054;DHT22;3055;50.886;14.814;2023-11-19T14:34:29;6.90;99.90
6054;DHT22;3055;50.886;14.814;2023-11-19T14:36:57;6.90;99.90
6054;DHT22;3055;50.886;14.814;2023-11-19T14:39:24;6.80;99.90
6054;DHT22;3055;50.886;14.814;2023-11-19T14:41:51;6.80;99.90
6054;DHT22;3055;50.886;14.814;2023-11-19T14:44:23;6.70;99.90
6054;DHT22;3055;50.886;14.814;2023-11-19T14:46:50;6.70;99.90
6054;DHT22;3055;50.886;14.814;2023-11-19T14:49:17;6.60;99.90
6054;DHT22;3055;50.886;14.814;2023-11-19T14:51:45;6.60;99.90
6054;DHT22;3055;50.886;14.814;2023-11-19T14:54:12;6.50;99.90
6054;DHT22;3055;50.886;14.814;2023-11-19T14:56:41;6.50;99.90
6054;DHT22;3055;50.886;14.814;2023-11-19T14:59:08;6.50;99.90
6054;DHT22;3055;50.886;14.814;2023-11-19T15:01:36;6.50;99.90
6054;DHT22;3055;50.886;14.814;2023-11-19T15:04:03;6.50;99.90
6054;DHT22;3055;50.886;14.814;2023-11-19T15:06:30;6.50;99.90
6054;DHT22;3055;50.886;14.814;2023-11-19T15:09:00;6.40;99.90
6054;DHT22;3055;50.886;14.814;2023-11-19T15:11:27;6.40;99.90
6054;DHT22;3055;50.886;14.814;2023-11-19T15:13:54;6.40;99.90
6054;DHT22;3055;50.886;14.814;2023-11-19T15:16:21;6.50;99.90
6054;DHT22;3055;50.886;14.814;2023-11-19T15:18:56;6.50;99.90
6054;DHT22;3055;50.886;14.814;2023-11-19T15:21:25;6.50;99.90
6054;DHT22;3055;50.886;14.814;2023-11-19T15:23:52;6.50;99.90
6054;DHT22;3055;50.886;14.814;2023-11-19T15:26:21;6.60;99.90
6054;DHT22;3055;50.886;14.814;2023-11-19T15:28:48;6.50;99.90
6054;DHT22;3055;50.886;14.814;2023-11-19T15:31:15;6.50;99.90
6054;DHT22;3055;50.886;14.814;2023-11-19T15:33:42;6.50;99.90
6054;DHT22;3055;50.886;14.814;2023-11-19T15:36:09;6.50;99.90
6054;DHT22;3055;50.886;14.814;2023-11-19T15:38:36;6.50;99.90
6054;DHT22;3055;50.886;14.814;2023-11-19T15:41:04;6.50;99.90
6054;DHT22;3055;50.886;14.814;2023-11-19T15:43:34;6.50;99.90
6054;DHT22;3055;50.886;14.814;2023-11-19T15:46:05;6.50;99.90
6054;DHT22;3055;50.886;14.814;2023-11-19T15:48:32;6.50;99.90
6054;DHT22;3055;50.886;14.814;2023-11-19T15:50:59;6.50;99.90
6054;DHT22;3055;50.886;14.814;2023-11-19T15:53:27;6.50;99.90
6054;DHT22;3055;50.886;14.814;2023-11-19T15:55:54;6.50;99.90
6054;DHT22;3055;50.886;14.814;2023-11-19T15:58:21;6.40;99.90
6054;DHT22;3055;50.886;14.814;2023-11-19T16:00:50;6.40;99.90
6054;DHT22;3055;50.886;14.814;2023-11-19T16:03:17;6.40;99.90
6054;DHT22;3055;50.886;14.814;2023-11-19T16:05:45;6.40;99.90
6054;DHT22;3055;50.886;14.814;2023-11-19T16:08:12;6.40;99.90
6054;DHT22;3055;50.886;14.814;2023-11-19T16:10:39;6.40;99.90